createdAt,value
2023-02-12T00:01:18.067Z,59.58
2023-02-12T00:03:46.536Z,59.37
2023-02-12T00:06:16.049Z,59.04
2023-02-12T00:08:43.968Z,59.41
2023-02-12T00:11:18.465Z,59.23
2023-02-12T00:13:45.858Z,59.02
2023-02-12T00:16:16.443Z,58.82
2023-02-12T00:18:44.142Z,58.94
2023-02-12T00:21:14.310Z,59.09
2023-02-12T00:23:41.730Z,58.89
2023-02-12T00:26:11.150Z,59.33
2023-02-12T00:28:38.878Z,59.58
2023-02-12T00:31:15.333Z,59.58
2023-02-12T00:33:43.560Z,59.30
2023-02-12T00:36:23.661Z,59.21
2023-02-12T00:38:52.905Z,59.35
2023-02-12T00:41:20.974Z,59.53
2023-02-12T00:43:48.890Z,59.65
2023-02-12T00:46:16.789Z,59.76
2023-02-12T00:48:43.971Z,59.89
2023-02-12T00:51:12.991Z,59.98
2023-02-12T00:53:40.086Z,59.67
2023-02-12T00:56:07.768Z,59.78
2023-02-12T00:58:34.759Z,61.24
2023-02-12T01:01:03.151Z,60.49
2023-02-12T01:03:30.322Z,60.92
2023-02-12T01:05:58.206Z,61.86
2023-02-12T01:08:25.528Z,62.43
2023-02-12T01:10:59.137Z,62.03
2023-02-12T01:13:27.704Z,62.11
2023-02-12T01:16:22.057Z,61.08
2023-02-12T01:18:50.211Z,60.46
2023-02-12T01:21:24.042Z,60.67
2023-02-12T01:23:51.258Z,60.44
2023-02-12T01:26:20.434Z,60.80
2023-02-12T01:28:56.329Z,61.14
2023-02-12T01:31:27.727Z,60.51
2023-02-12T01:33:59.217Z,60.45
2023-02-12T01:36:28.646Z,60.72
2023-02-12T01:38:56.750Z,60.72
2023-02-12T01:41:30.889Z,60.39
2023-02-12T01:44:26.123Z,60.59
2023-02-12T01:47:00.398Z,61.39
2023-02-12T01:49:41.943Z,61.27
2023-02-12T01:52:16.245Z,61.46
2023-02-12T01:54:44.035Z,61.41
2023-02-12T01:57:14.026Z,61.68
2023-02-12T01:59:43.691Z,61.88
2023-02-12T02:02:10.707Z,62.04
2023-02-12T02:04:44.039Z,62.03
2023-02-12T02:07:12.187Z,62.07
2023-02-12T02:09:40.414Z,62.19
2023-02-12T02:12:27.059Z,62.27
2023-02-12T02:14:57.965Z,62.15
2023-02-12T02:17:43.235Z,62.17
2023-02-12T02:20:45.272Z,65.02
2023-02-12T02:23:47.298Z,66.92
2023-02-12T02:26:32.648Z,68.85
2023-02-12T02:29:24.937Z,70.17
2023-02-12T02:32:03.182Z,70.63
2023-02-12T02:34:30.288Z,71.05
2023-02-12T02:37:36.451Z,70.72
2023-02-12T02:40:13.820Z,70.24
2023-02-12T02:42:59.818Z,70.38
2023-02-12T02:45:34.662Z,70.66
2023-02-12T02:48:22.544Z,70.53
2023-02-12T02:50:56.216Z,70.38
2023-02-12T02:53:39.964Z,70.39
2023-02-12T02:56:12.339Z,70.48
2023-02-12T02:58:46.838Z,71.44
2023-02-12T03:01:24.577Z,72.01
2023-02-12T03:04:08.844Z,72.02
2023-02-12T03:06:35.748Z,71.97
2023-02-12T03:09:13.262Z,72.43
2023-02-12T03:11:40.684Z,73.09
2023-02-12T03:14:12.039Z,73.25
2023-02-12T03:17:02.698Z,74.44
2023-02-12T03:19:35.084Z,75.03
2023-02-12T03:22:09.423Z,75.41
2023-02-12T03:24:56.126Z,76.19
2023-02-12T03:27:41.691Z,77.22
2023-02-12T03:30:09.989Z,77.21
2023-02-12T03:32:43.154Z,78.07
2023-02-12T03:35:25.536Z,78.96
2023-02-12T03:38:02.855Z,79.00
2023-02-12T03:40:35.313Z,78.95
2023-02-12T03:43:17.131Z,79.56
2023-02-12T03:45:52.188Z,79.49
2023-02-12T03:48:28.582Z,79.79
2023-02-12T03:51:15.599Z,79.86
2023-02-12T03:53:44.249Z,79.66
2023-02-12T03:56:24.585Z,80.39
2023-02-12T03:58:54.817Z,80.10
2023-02-12T04:01:22.370Z,80.72
2023-02-12T04:03:49.723Z,80.74
2023-02-12T04:06:22.649Z,80.86
2023-02-12T04:08:49.975Z,80.63
2023-02-12T04:11:55.476Z,80.77
2023-02-12T04:14:31.396Z,80.94
2023-02-12T04:17:30.108Z,80.79
2023-02-12T04:20:16.609Z,80.97
2023-02-12T04:22:45.482Z,81.21
2023-02-12T04:25:12.405Z,81.41
2023-02-12T04:27:56.231Z,81.25
2023-02-12T04:30:36.101Z,81.21
2023-02-12T04:33:06.706Z,81.51
2023-02-12T04:35:49.678Z,81.44
2023-02-12T04:38:32.994Z,81.29
2023-02-12T04:41:00.416Z,81.30
2023-02-12T04:43:36.585Z,81.25
2023-02-12T04:46:06.386Z,81.14
2023-02-12T04:48:35.114Z,81.35
2023-02-12T04:51:02.263Z,81.08
2023-02-12T04:53:29.625Z,81.42
2023-02-12T04:55:57.170Z,81.33
2023-02-12T04:58:25.056Z,81.22
2023-02-12T05:00:52.124Z,81.16
2023-02-12T05:03:19.886Z,81.08
2023-02-12T05:05:46.926Z,81.43
2023-02-12T05:08:15.222Z,81.64
2023-02-12T05:10:42.600Z,81.50
2023-02-12T05:13:10.898Z,81.21
2023-02-12T05:15:39.754Z,81.60
2023-02-12T05:18:07.165Z,81.84
2023-02-12T05:20:34.135Z,82.37
2023-02-12T05:23:01.764Z,82.30
2023-02-12T05:25:28.894Z,82.67
2023-02-12T05:27:57.544Z,82.99
2023-02-12T05:30:24.605Z,83.15
2023-02-12T05:32:52.340Z,83.50
2023-02-12T05:35:19.814Z,82.99
2023-02-12T05:37:47.870Z,83.40
2023-02-12T05:40:15.361Z,83.43
2023-02-12T05:42:50.337Z,83.39
2023-02-12T05:45:18.161Z,83.44
2023-02-12T05:47:47.489Z,83.27
2023-02-12T05:50:15.601Z,83.07
2023-02-12T05:52:44.688Z,83.13
2023-02-12T05:55:14.230Z,82.90
2023-02-12T05:57:41.643Z,83.16
2023-02-12T06:00:11.040Z,82.79
2023-02-12T06:02:39.764Z,82.85
2023-02-12T06:05:09.166Z,82.79
2023-02-12T06:07:37.933Z,82.87
2023-02-12T06:10:05.774Z,82.61
2023-02-12T06:12:33.768Z,82.53
2023-02-12T06:15:01.512Z,82.38
2023-02-12T06:17:30.162Z,82.66
2023-02-12T06:19:57.291Z,82.72
2023-02-12T06:22:24.983Z,82.58
2023-02-12T06:24:53.407Z,82.33
2023-02-12T06:27:22.999Z,82.46
2023-02-12T06:29:54.250Z,82.36
2023-02-12T06:32:23.061Z,82.41
2023-02-12T06:34:50.208Z,82.30
2023-02-12T06:37:19.900Z,81.99
2023-02-12T06:39:49.021Z,82.26
2023-02-12T06:42:24.015Z,82.25
2023-02-12T06:44:52.990Z,82.08
2023-02-12T06:47:20.385Z,81.89
2023-02-12T06:49:47.826Z,81.87
2023-02-12T06:52:15.350Z,81.88
2023-02-12T06:54:42.647Z,81.51
2023-02-12T06:57:10.300Z,81.42
2023-02-12T06:59:37.518Z,81.18
2023-02-12T07:02:08.026Z,81.49
2023-02-12T07:04:40.545Z,81.14
2023-02-12T07:07:11.344Z,81.11
2023-02-12T07:09:41.159Z,80.88
2023-02-12T07:12:08.920Z,80.25
2023-02-12T07:14:36.154Z,80.60
2023-02-12T07:17:05.910Z,80.17
2023-02-12T07:19:33.096Z,80.39
2023-02-12T07:22:01.069Z,80.36
2023-02-12T07:24:33.768Z,80.57
2023-02-12T07:27:20.143Z,80.78
2023-02-12T07:30:05.397Z,81.02
2023-02-12T07:32:34.544Z,82.16
2023-02-12T07:35:04.518Z,82.27
2023-02-12T07:37:35.804Z,82.21
2023-02-12T07:40:05.993Z,82.52
2023-02-12T07:42:33.991Z,82.64
2023-02-12T07:45:01.407Z,82.51
2023-02-12T07:47:29.035Z,82.27
2023-02-12T07:49:56.134Z,82.34
2023-02-12T07:52:23.784Z,82.18
2023-02-12T07:54:55.822Z,81.65
2023-02-12T07:57:23.853Z,80.91
2023-02-12T07:59:51.250Z,80.49
2023-02-12T08:02:19.911Z,79.56
2023-02-12T08:04:47.981Z,78.92
2023-02-12T08:07:16.463Z,76.68
2023-02-12T08:09:44.466Z,76.26
2023-02-12T08:12:14.011Z,75.84
2023-02-12T08:14:42.483Z,74.10
2023-02-12T08:17:11.372Z,72.88
2023-02-12T08:19:38.897Z,72.27
2023-02-12T08:22:07.509Z,72.31
2023-02-12T08:24:34.628Z,71.72
2023-02-12T08:27:02.510Z,71.74
2023-02-12T08:29:30.702Z,72.17
2023-02-12T08:32:02.242Z,72.33
2023-02-12T08:34:35.303Z,72.35
2023-02-12T08:37:11.553Z,72.46
2023-02-12T08:39:40.176Z,72.97
2023-02-12T08:42:07.673Z,72.75
2023-02-12T08:44:35.282Z,72.94
2023-02-12T08:47:03.218Z,73.22
2023-02-12T08:49:31.795Z,72.82
2023-02-12T08:52:05.173Z,72.48
2023-02-12T08:54:32.893Z,71.33
2023-02-12T08:57:02.989Z,70.67
2023-02-12T08:59:30.353Z,70.50
2023-02-12T09:01:58.090Z,69.52
2023-02-12T09:04:35.794Z,68.88
2023-02-12T09:07:08.310Z,69.20
2023-02-12T09:09:47.128Z,68.26
2023-02-12T09:12:15.032Z,66.31
2023-02-12T09:14:46.017Z,64.39
2023-02-12T09:17:16.621Z,62.43
2023-02-12T09:19:43.780Z,58.65
2023-02-12T09:22:11.227Z,58.18
2023-02-12T09:24:38.685Z,57.50
2023-02-12T09:27:13.711Z,56.43
2023-02-12T09:29:42.741Z,51.12
2023-02-12T09:32:10.618Z,47.11
2023-02-12T09:34:37.813Z,42.46
2023-02-12T09:37:05.301Z,38.04
2023-02-12T09:39:32.436Z,38.91
2023-02-12T09:42:24.559Z,39.89
2023-02-12T09:45:18.529Z,42.41
2023-02-12T09:48:05.800Z,43.48
2023-02-12T09:50:44.861Z,44.10
2023-02-12T09:53:18.430Z,43.51
2023-02-12T09:55:51.767Z,40.20
2023-02-12T09:59:00.213Z,39.74
2023-02-12T10:01:28.702Z,41.99
2023-02-12T10:03:57.813Z,42.31
2023-02-12T10:06:38.162Z,43.43
2023-02-12T10:09:37.826Z,41.43
2023-02-12T10:12:22.944Z,39.44
2023-02-12T10:15:28.628Z,37.68
2023-02-12T10:18:05.190Z,36.38
2023-02-12T10:20:52.711Z,36.74
2023-02-12T10:23:38.010Z,35.68
2023-02-12T10:26:18.565Z,37.41
2023-02-12T10:28:46.839Z,36.32
2023-02-12T10:31:33.051Z,33.56
2023-02-12T10:34:14.831Z,33.38
2023-02-12T10:36:43.130Z,31.67
2023-02-12T10:39:10.103Z,31.97
2023-02-12T10:41:44.056Z,30.40
2023-02-12T10:44:32.267Z,32.18
2023-02-12T10:47:06.172Z,33.35
2023-02-12T10:49:42.780Z,34.91
2023-02-12T10:52:16.888Z,35.35
2023-02-12T10:54:46.842Z,33.56
2023-02-12T10:57:22.975Z,32.59
2023-02-12T10:59:53.417Z,33.19
2023-02-12T11:02:33.586Z,33.11
2023-02-12T11:05:24.169Z,33.39
2023-02-12T11:07:52.187Z,31.78
2023-02-12T11:10:27.470Z,32.29
2023-02-12T11:12:55.405Z,31.25
2023-02-12T11:15:27.684Z,32.86
2023-02-12T11:18:03.664Z,34.26
2023-02-12T11:20:56.053Z,34.09
2023-02-12T11:23:35.746Z,33.41
2023-02-12T11:26:06.278Z,31.44
2023-02-12T11:28:36.654Z,31.00
2023-02-12T11:31:22.811Z,31.74
2023-02-12T11:34:15.472Z,31.77
2023-02-12T11:36:52.208Z,33.02
2023-02-12T11:39:32.685Z,32.51
2023-02-12T11:42:24.318Z,32.27
2023-02-12T11:45:05.793Z,32.82
2023-02-12T11:47:36.335Z,33.70
2023-02-12T11:50:31.397Z,34.07
2023-02-12T11:53:09.522Z,34.32
2023-02-12T11:55:41.438Z,33.84
2023-02-12T11:58:22.221Z,33.17
2023-02-12T12:00:53.422Z,33.38
2023-02-12T12:03:28.746Z,33.70
2023-02-12T12:06:05.695Z,33.95
2023-02-12T12:09:04.165Z,35.84
2023-02-12T12:11:43.213Z,33.57
2023-02-12T12:14:28.966Z,32.14
2023-02-12T12:17:29.773Z,33.15
2023-02-12T12:20:30.225Z,33.18
2023-02-12T12:23:04.387Z,32.40
2023-02-12T12:25:43.550Z,32.50
2023-02-12T12:28:29.509Z,32.06
2023-02-12T12:31:30.671Z,32.10
2023-02-12T12:34:11.806Z,31.21
2023-02-12T12:37:13.209Z,31.13
2023-02-12T12:40:12.869Z,31.18
2023-02-12T12:42:59.648Z,30.29
2023-02-12T12:45:27.577Z,30.90
2023-02-12T12:48:33.971Z,30.99
2023-02-12T12:51:21.714Z,31.90
2023-02-12T12:53:57.869Z,33.31
2023-02-12T12:56:41.981Z,34.04
2023-02-12T12:59:29.468Z,35.51
2023-02-12T13:02:30.157Z,35.52
2023-02-12T13:05:20.848Z,36.34
2023-02-12T13:08:09.943Z,36.53
2023-02-12T13:11:10.941Z,37.06
2023-02-12T13:13:44.032Z,37.67
2023-02-12T13:16:27.812Z,38.79
2023-02-12T13:19:29.285Z,38.08
2023-02-12T13:22:01.920Z,35.65
2023-02-12T13:24:53.837Z,37.02
2023-02-12T13:27:28.023Z,37.37
2023-02-12T13:30:18.552Z,37.07
2023-02-12T13:32:59.473Z,37.16
2023-02-12T13:35:29.642Z,37.31
2023-02-12T13:37:57.674Z,37.89
2023-02-12T13:40:28.138Z,38.40
2023-02-12T13:43:28.567Z,37.96
2023-02-12T13:46:14.135Z,37.71
2023-02-12T13:49:03.198Z,36.99
2023-02-12T13:51:39.602Z,37.46
2023-02-12T13:54:45.891Z,37.18
2023-02-12T13:57:18.140Z,38.39
2023-02-12T13:59:56.485Z,39.77
2023-02-12T14:02:33.285Z,40.74
2023-02-12T14:05:01.657Z,40.84
2023-02-12T14:07:47.849Z,39.55
2023-02-12T14:10:24.067Z,38.24
2023-02-12T14:12:53.182Z,38.47
2023-02-12T14:15:35.295Z,39.47
2023-02-12T14:18:02.575Z,40.73
2023-02-12T14:21:17.220Z,42.26
2023-02-12T14:23:47.321Z,42.90
2023-02-12T14:26:20.693Z,42.68
2023-02-12T14:29:06.575Z,42.05
2023-02-12T14:31:36.016Z,40.16
2023-02-12T14:34:06.590Z,39.97
2023-02-12T14:36:34.276Z,39.88
2023-02-12T14:39:20.664Z,40.17
2023-02-12T14:41:52.188Z,41.13
2023-02-12T14:44:30.774Z,41.15
2023-02-12T14:47:07.000Z,41.68
2023-02-12T14:49:47.739Z,42.19
2023-02-12T14:52:20.580Z,41.93
2023-02-12T14:55:17.967Z,42.79
2023-02-12T15:01:17.804Z,43.66
2023-02-12T15:04:17.862Z,44.26
2023-02-12T15:07:08.569Z,45.02
2023-02-12T15:09:57.472Z,44.33
2023-02-12T15:12:34.739Z,44.50
2023-02-12T15:15:11.188Z,44.09
2023-02-12T15:17:47.660Z,44.31
2023-02-12T15:20:24.855Z,44.23
2023-02-12T15:22:52.455Z,45.13
2023-02-12T15:25:27.131Z,45.43
2023-02-12T15:27:58.200Z,46.17
2023-02-12T15:30:32.005Z,46.42
2023-02-12T15:33:03.233Z,46.91
2023-02-12T15:35:33.390Z,47.17
2023-02-12T15:38:05.374Z,46.92
2023-02-12T15:40:53.153Z,46.74
2023-02-12T15:43:21.693Z,46.06
2023-02-12T15:45:53.537Z,46.28
2023-02-12T15:48:33.164Z,46.15
2023-02-12T15:51:02.404Z,45.68
2023-02-12T15:53:33.331Z,45.52
2023-02-12T15:56:02.897Z,45.42
2023-02-12T15:58:38.285Z,45.86
2023-02-12T16:01:06.811Z,46.35
2023-02-12T16:03:37.439Z,45.99
2023-02-12T16:06:16.954Z,46.27
2023-02-12T16:08:47.760Z,46.68
2023-02-12T16:11:20.620Z,47.25
2023-02-12T16:14:04.211Z,47.21
2023-02-12T16:16:48.928Z,47.79
2023-02-12T16:19:19.164Z,47.48
2023-02-12T16:22:06.176Z,47.92
2023-02-12T16:24:39.934Z,47.87
2023-02-12T16:27:19.444Z,48.18
2023-02-12T16:29:53.860Z,48.34
2023-02-12T16:32:44.076Z,48.26
2023-02-12T16:35:12.789Z,48.42
2023-02-12T16:37:39.982Z,48.90
2023-02-12T16:40:14.660Z,48.37
2023-02-12T16:42:53.391Z,48.77
2023-02-12T16:45:27.720Z,48.56
2023-02-12T16:48:05.048Z,49.20
2023-02-12T16:50:35.284Z,49.20
2023-02-12T16:53:04.947Z,49.08
2023-02-12T16:55:37.080Z,49.11
2023-02-12T16:58:04.353Z,49.12
2023-02-12T17:03:24.747Z,49.73
2023-02-12T17:05:53.193Z,49.30
2023-02-12T17:08:23.346Z,49.30
2023-02-12T17:10:51.824Z,49.67
2023-02-12T17:13:23.738Z,49.69
2023-02-12T17:15:55.555Z,49.46
2023-02-12T17:18:23.778Z,49.67
2023-02-12T17:20:56.862Z,49.67
2023-02-12T17:23:24.525Z,49.93
2023-02-12T17:25:55.100Z,49.66
2023-02-12T17:28:23.228Z,50.08
2023-02-12T17:30:58.176Z,50.15
2023-02-12T17:33:25.936Z,50.46
2023-02-12T17:35:54.786Z,50.76
2023-02-12T17:38:21.920Z,50.68
2023-02-12T17:40:49.480Z,50.60
2023-02-12T17:43:16.661Z,51.18
2023-02-12T17:45:44.482Z,51.33
2023-02-12T17:48:13.771Z,51.38
2023-02-12T17:50:42.123Z,51.63
2023-02-12T17:53:12.951Z,51.82
2023-02-12T17:55:41.791Z,51.96
2023-02-12T17:58:08.960Z,52.01
2023-02-12T18:00:36.427Z,52.47
2023-02-12T18:03:03.956Z,52.54
2023-02-12T18:05:32.492Z,52.67
2023-02-12T18:07:59.934Z,52.71
2023-02-12T18:10:27.386Z,53.03
2023-02-12T18:12:55.117Z,53.09
2023-02-12T18:15:23.743Z,53.89
2023-02-12T18:17:51.090Z,53.84
2023-02-12T18:20:22.836Z,54.50
2023-02-12T18:22:50.999Z,54.43
2023-02-12T18:25:18.991Z,54.83
2023-02-12T18:27:47.394Z,55.33
2023-02-12T18:30:22.959Z,55.24
2023-02-12T18:32:51.439Z,55.60
2023-02-12T18:35:19.817Z,56.31
2023-02-12T18:37:48.179Z,56.29
2023-02-12T18:40:17.953Z,56.43
2023-02-12T18:42:47.533Z,56.94
2023-02-12T18:45:21.872Z,57.41
2023-02-12T18:47:53.138Z,57.53
2023-02-12T18:50:30.859Z,58.09
2023-02-12T18:52:58.485Z,58.00
2023-02-12T18:55:28.066Z,57.89
2023-02-12T18:57:56.190Z,58.07
2023-02-12T19:00:26.694Z,58.24
2023-02-12T19:03:01.431Z,58.56
2023-02-12T19:05:33.252Z,58.26
2023-02-12T19:08:00.550Z,58.33
2023-02-12T19:10:28.633Z,58.38
2023-02-12T19:12:56.512Z,58.38
2023-02-12T19:15:33.203Z,58.32
2023-02-12T19:18:01.528Z,58.85
2023-02-12T19:20:28.974Z,58.83
2023-02-12T19:22:57.036Z,59.12
2023-02-12T19:25:25.778Z,59.33
2023-02-12T19:27:53.405Z,59.11
2023-02-12T19:30:20.894Z,59.35
2023-02-12T19:32:48.172Z,59.30
2023-02-12T19:35:16.171Z,59.13
2023-02-12T19:37:43.904Z,59.73
2023-02-12T19:40:20.160Z,59.52
2023-02-12T19:42:49.923Z,59.59
2023-02-12T19:45:19.322Z,59.60
2023-02-12T19:47:48.236Z,59.93
2023-02-12T19:50:15.728Z,60.21
2023-02-12T19:52:44.613Z,60.16
2023-02-12T19:55:12.084Z,60.48
2023-02-12T19:57:41.950Z,60.56
2023-02-12T20:00:10.919Z,60.92
2023-02-12T20:02:38.076Z,61.10
2023-02-12T20:05:07.872Z,60.99
2023-02-12T20:07:37.932Z,61.22
2023-02-12T20:10:07.458Z,61.24
2023-02-12T20:12:36.307Z,61.17
2023-02-12T20:15:04.331Z,61.23
2023-02-12T20:17:31.885Z,61.12
2023-02-12T20:19:59.245Z,61.67
2023-02-12T20:22:26.369Z,61.53
2023-02-12T20:24:53.972Z,61.82
2023-02-12T20:27:21.160Z,61.91
2023-02-12T20:29:48.670Z,61.80
2023-02-12T20:32:26.265Z,62.02
2023-02-12T20:34:53.926Z,62.12
2023-02-12T20:37:20.934Z,62.30
2023-02-12T20:39:51.093Z,62.26
2023-02-12T20:42:19.389Z,62.33
2023-02-12T20:44:57.397Z,62.55
2023-02-12T20:47:34.892Z,62.37
2023-02-12T20:50:04.790Z,62.53
2023-02-12T20:52:32.388Z,62.77
2023-02-12T20:55:02.408Z,62.45
2023-02-12T20:57:31.738Z,62.73
2023-02-12T21:00:02.090Z,62.60
2023-02-12T21:02:29.639Z,62.97
2023-02-12T21:04:57.006Z,63.13
2023-02-12T21:07:24.155Z,63.26
2023-02-12T21:09:56.347Z,63.28
2023-02-12T21:12:25.176Z,63.28
2023-02-12T21:14:52.568Z,63.84
2023-02-12T21:17:29.023Z,63.71
2023-02-12T21:19:56.350Z,63.72
2023-02-12T21:22:23.395Z,64.18
2023-02-12T21:24:52.230Z,63.97
2023-02-12T21:27:20.767Z,64.33
2023-02-12T21:29:48.749Z,65.21
2023-02-12T21:32:15.949Z,64.81
2023-02-12T21:34:44.663Z,64.89
2023-02-12T21:37:11.619Z,65.03
2023-02-12T21:39:38.967Z,65.03
2023-02-12T21:42:06.074Z,64.91
2023-02-12T21:44:37.927Z,64.98
2023-02-12T21:47:05.628Z,65.17
2023-02-12T21:49:33.330Z,64.97
2023-02-12T21:52:02.753Z,65.31
2023-02-12T21:54:30.977Z,65.20
2023-02-12T21:56:59.543Z,65.21
2023-02-12T21:59:29.518Z,65.28
2023-02-12T22:02:00.968Z,65.33
2023-02-12T22:04:29.089Z,65.89
2023-02-12T22:06:58.142Z,65.75
2023-02-12T22:09:25.635Z,65.80
2023-02-12T22:11:52.865Z,65.66
2023-02-12T22:14:22.224Z,65.42
2023-02-12T22:16:49.759Z,65.71
2023-02-12T22:19:17.512Z,66.20
2023-02-12T22:21:44.812Z,66.16
2023-02-12T22:24:14.967Z,66.27
2023-02-12T22:26:42.642Z,66.27
2023-02-12T22:29:11.711Z,66.40
2023-02-12T22:31:40.906Z,66.76
2023-02-12T22:34:10.768Z,66.49
2023-02-12T22:36:39.259Z,66.75
2023-02-12T22:39:06.946Z,66.79
2023-02-12T22:41:34.558Z,66.53
2023-02-12T22:44:05.307Z,66.53
2023-02-12T22:46:33.425Z,66.89
2023-02-12T22:49:01.565Z,67.04
2023-02-12T22:51:31.134Z,67.08
2023-02-12T22:53:59.159Z,67.19
2023-02-12T22:56:26.595Z,67.17
2023-02-12T22:58:56.182Z,67.29
2023-02-12T23:01:23.517Z,67.31
2023-02-12T23:03:51.651Z,67.41
2023-02-12T23:06:22.400Z,67.49
2023-02-12T23:08:52.082Z,67.95
2023-02-12T23:11:19.821Z,68.06
2023-02-12T23:13:47.842Z,67.59
2023-02-12T23:16:15.046Z,67.61
2023-02-12T23:18:42.805Z,67.83
2023-02-12T23:21:09.921Z,68.18
2023-02-12T23:23:37.436Z,68.07
2023-02-12T23:26:05.345Z,68.07
2023-02-12T23:28:32.913Z,68.20
2023-02-12T23:31:00.501Z,67.97
2023-02-12T23:33:28.420Z,68.23
2023-02-12T23:35:56.089Z,68.46
2023-02-12T23:38:23.512Z,68.47
2023-02-12T23:40:50.561Z,68.18
2023-02-12T23:43:17.900Z,68.17
2023-02-12T23:45:45.313Z,68.27
2023-02-12T23:48:13.567Z,68.40
2023-02-12T23:50:41.345Z,68.66
2023-02-12T23:53:11.147Z,68.70
2023-02-12T23:55:39.599Z,68.91
2023-02-12T23:58:07.547Z,68.52
